createdAt,value
2017-09-28T00:01:59.679Z,21.13
2017-09-28T00:04:27.280Z,21.40
2017-09-28T00:06:54.911Z,22.80
2017-09-28T00:09:22.827Z,22.10
2017-09-28T00:11:50.508Z,22.43
2017-09-28T00:14:18.462Z,23.23
2017-09-28T00:16:46.049Z,23.00
2017-09-28T00:19:13.670Z,21.57
2017-09-28T00:21:41.257Z,22.07
2017-09-28T00:24:08.894Z,22.43
2017-09-28T00:26:36.477Z,23.30
2017-09-28T00:29:04.117Z,22.83
2017-09-28T00:31:31.749Z,22.80
2017-09-28T00:33:59.342Z,21.83
2017-09-28T00:36:26.965Z,22.93
2017-09-28T00:38:54.558Z,22.50
2017-09-28T00:41:22.145Z,23.00
2017-09-28T00:43:49.789Z,22.43
2017-09-28T00:46:17.392Z,22.30
2017-09-28T00:48:45.008Z,23.17
2017-09-28T00:51:12.606Z,23.13
2017-09-28T00:53:40.453Z,22.40
2017-09-28T00:56:08.427Z,24.17
2017-09-28T00:58:36.293Z,23.57
2017-09-28T01:01:04.260Z,22.83
2017-09-28T01:03:31.852Z,23.97
2017-09-28T01:05:59.478Z,24.43
2017-09-28T01:08:27.352Z,22.97
2017-09-28T01:10:54.957Z,23.17
2017-09-28T01:13:22.579Z,25.17
2017-09-28T01:15:50.158Z,22.87
2017-09-28T01:18:17.756Z,24.33
2017-09-28T01:20:45.372Z,24.23
2017-09-28T01:23:12.981Z,23.97
2017-09-28T01:25:40.629Z,23.17
2017-09-28T01:28:08.461Z,23.07
2017-09-28T01:30:36.058Z,24.47
2017-09-28T01:33:03.689Z,24.97
2017-09-28T01:35:31.288Z,22.93
2017-09-28T01:37:58.934Z,23.43
2017-09-28T01:40:26.526Z,24.03
2017-09-28T01:42:54.125Z,22.93
2017-09-28T01:45:21.753Z,24.23
2017-09-28T01:47:49.655Z,23.30
2017-09-28T01:50:17.281Z,24.40
2017-09-28T01:52:44.906Z,25.37
2017-09-28T01:55:12.751Z,25.00
2017-09-28T01:57:40.384Z,25.60
2017-09-28T02:00:08.285Z,23.50
2017-09-28T02:02:35.925Z,23.80
2017-09-28T02:05:03.521Z,22.90
2017-09-28T02:07:31.104Z,22.33
2017-09-28T02:09:59.034Z,24.40
2017-09-28T02:12:26.650Z,24.07
2017-09-28T02:14:54.369Z,22.90
2017-09-28T02:17:21.969Z,23.40
2017-09-28T02:19:49.576Z,22.60
2017-09-28T02:22:17.212Z,23.10
2017-09-28T02:24:44.792Z,23.50
2017-09-28T02:27:12.439Z,21.50
2017-09-28T02:29:40.044Z,22.77
2017-09-28T02:32:07.657Z,22.50
2017-09-28T02:34:35.560Z,23.43
2017-09-28T02:37:03.164Z,24.77
2017-09-28T02:39:30.839Z,23.30
2017-09-28T02:41:58.439Z,22.30
2017-09-28T02:44:26.054Z,21.87
2017-09-28T02:46:53.677Z,23.17
2017-09-28T02:49:21.288Z,22.57
2017-09-28T02:51:48.925Z,22.17
2017-09-28T02:54:16.520Z,22.80
2017-09-28T02:56:44.116Z,23.30
2017-09-28T02:59:11.737Z,21.40
2017-09-28T03:01:39.334Z,20.83
2017-09-28T03:04:06.985Z,21.17
2017-09-28T03:06:34.977Z,22.60
2017-09-28T03:09:02.586Z,20.70
2017-09-28T03:11:30.277Z,21.80
2017-09-28T03:13:57.884Z,20.87
2017-09-28T03:16:25.841Z,21.47
2017-09-28T03:18:53.449Z,21.57
2017-09-28T03:21:21.040Z,20.90
2017-09-28T03:23:48.678Z,20.40
2017-09-28T03:26:16.312Z,20.80
2017-09-28T03:28:43.964Z,21.60
2017-09-28T03:31:11.566Z,21.07
2017-09-28T03:33:39.205Z,21.80
2017-09-28T03:36:06.826Z,19.97
2017-09-28T03:38:34.446Z,20.33
2017-09-28T03:41:02.092Z,20.80
2017-09-28T03:43:29.705Z,20.70
2017-09-28T03:45:57.311Z,20.63
2017-09-28T03:48:24.921Z,19.73
2017-09-28T03:50:52.532Z,21.47
2017-09-28T03:53:20.193Z,20.30
2017-09-28T03:55:47.792Z,20.57
2017-09-28T03:58:15.697Z,20.10
2017-09-28T04:00:43.317Z,20.90
2017-09-28T04:03:10.944Z,20.80
2017-09-28T04:05:38.911Z,19.97
2017-09-28T04:08:06.495Z,20.93
2017-09-28T04:10:34.144Z,20.47
2017-09-28T04:13:01.756Z,21.23
2017-09-28T04:15:29.364Z,20.20
2017-09-28T04:17:57.006Z,20.27
2017-09-28T04:20:24.596Z,20.43
2017-09-28T04:22:52.208Z,19.87
2017-09-28T04:25:19.817Z,20.37
2017-09-28T04:27:47.756Z,19.20
2017-09-28T04:30:15.750Z,19.87
2017-09-28T04:32:43.339Z,20.27
2017-09-28T04:35:10.939Z,19.70
2017-09-28T04:37:38.563Z,21.07
2017-09-28T04:40:06.145Z,20.77
2017-09-28T04:42:33.728Z,20.07
2017-09-28T04:45:01.364Z,19.00
2017-09-28T04:47:29.273Z,21.73
2017-09-28T04:49:56.859Z,21.63
2017-09-28T04:52:24.506Z,21.20
2017-09-28T04:54:52.091Z,19.57
2017-09-28T04:57:19.697Z,19.67
2017-09-28T04:59:47.325Z,19.37
2017-09-28T05:02:15.245Z,20.27
2017-09-28T05:04:42.859Z,20.30
2017-09-28T05:07:10.452Z,20.60
2017-09-28T05:09:38.055Z,20.40
2017-09-28T05:12:05.687Z,20.33
2017-09-28T05:14:33.277Z,21.23
2017-09-28T05:17:00.904Z,22.43
2017-09-28T05:19:28.494Z,20.27
2017-09-28T05:21:56.096Z,20.30
2017-09-28T05:24:23.860Z,19.60
2017-09-28T05:26:51.899Z,19.27
2017-09-28T05:29:19.556Z,19.03
2017-09-28T05:31:47.172Z,19.77
2017-09-28T05:34:14.880Z,19.97
2017-09-28T05:36:42.849Z,27.73
2017-09-28T05:39:10.450Z,20.30
2017-09-28T05:41:38.121Z,21.37
2017-09-28T05:44:05.732Z,19.83
2017-09-28T05:46:33.376Z,20.53
2017-09-28T05:49:00.992Z,20.50
2017-09-28T05:51:28.593Z,19.87
2017-09-28T05:53:56.232Z,19.80
2017-09-28T05:56:23.825Z,19.43
2017-09-28T05:58:51.430Z,20.50
2017-09-28T06:01:19.084Z,20.60
2017-09-28T06:03:46.672Z,19.93
2017-09-28T06:06:14.305Z,19.93
2017-09-28T06:08:41.900Z,28.17
2017-09-28T06:11:09.487Z,29.53
2017-09-28T06:13:37.112Z,21.70
2017-09-28T06:16:04.699Z,18.53
2017-09-28T06:18:32.344Z,20.60
2017-09-28T06:20:59.967Z,20.77
2017-09-28T06:23:27.585Z,20.60
2017-09-28T06:25:55.243Z,30.00
2017-09-28T06:28:22.868Z,21.57
2017-09-28T06:30:50.528Z,19.83
2017-09-28T06:33:18.132Z,19.80
2017-09-28T06:35:45.710Z,20.67
2017-09-28T06:38:13.349Z,19.60
2017-09-28T06:40:40.944Z,20.27
2017-09-28T06:43:08.589Z,19.97
2017-09-28T06:45:36.176Z,18.83
2017-09-28T06:48:03.772Z,20.47
2017-09-28T06:50:31.605Z,20.27
2017-09-28T06:52:59.198Z,20.87
2017-09-28T06:55:26.835Z,19.37
2017-09-28T06:57:54.693Z,20.30
2017-09-28T07:00:22.292Z,20.57
2017-09-28T07:02:49.944Z,18.63
2017-09-28T07:05:17.554Z,20.10
2017-09-28T07:07:45.192Z,21.07
2017-09-28T07:13:05.295Z,20.87
2017-09-28T07:15:33.224Z,20.00
2017-09-28T07:18:00.825Z,19.50
2017-09-28T07:20:28.450Z,20.37
2017-09-28T07:22:56.048Z,19.57
2017-09-28T07:25:23.976Z,20.20
2017-09-28T07:27:51.577Z,20.70
2017-09-28T07:30:19.197Z,21.20
2017-09-28T07:32:46.816Z,19.57
2017-09-28T07:35:14.400Z,21.10
2017-09-28T07:37:42.037Z,21.20
2017-09-28T07:40:09.639Z,20.07
2017-09-28T07:42:37.257Z,19.40
2017-09-28T07:45:04.885Z,29.60
2017-09-28T07:47:32.479Z,20.97
2017-09-28T07:50:00.124Z,20.00
2017-09-28T07:52:27.712Z,20.17
2017-09-28T07:54:55.305Z,20.23
2017-09-28T07:57:22.927Z,20.63
2017-09-28T07:59:50.853Z,19.83
2017-09-28T08:02:18.480Z,20.83
2017-09-28T08:04:46.084Z,19.93
2017-09-28T08:07:13.680Z,18.87
2017-09-28T08:09:41.302Z,19.83
2017-09-28T08:12:08.929Z,20.87
2017-09-28T08:14:36.556Z,20.87
2017-09-28T08:17:04.165Z,20.43
2017-09-28T08:19:31.776Z,20.40
2017-09-28T08:21:59.385Z,21.33
2017-09-28T08:24:26.987Z,20.33
2017-09-28T08:26:54.941Z,21.07
2017-09-28T08:29:22.540Z,21.07
2017-09-28T08:31:50.183Z,20.83
2017-09-28T08:34:17.889Z,19.93
2017-09-28T08:36:45.518Z,21.37
2017-09-28T08:39:13.174Z,19.93
2017-09-28T08:41:40.772Z,20.33
2017-09-28T08:44:08.388Z,20.97
2017-09-28T08:46:36.051Z,20.17
2017-09-28T08:49:03.640Z,20.60
2017-09-28T08:51:31.291Z,19.70
2017-09-28T08:53:58.896Z,21.10
2017-09-28T08:56:26.475Z,21.00
2017-09-28T08:58:54.084Z,20.80
2017-09-28T09:01:21.679Z,19.97
2017-09-28T09:03:49.291Z,20.37
2017-09-28T09:06:16.868Z,21.13
2017-09-28T09:08:44.963Z,21.80
2017-09-28T09:11:12.582Z,19.83
2017-09-28T09:13:40.201Z,20.43
2017-09-28T09:16:08.096Z,21.97
2017-09-28T09:18:35.968Z,20.37
2017-09-28T09:21:03.841Z,22.13
2017-09-28T09:23:31.804Z,23.10
2017-09-28T09:25:59.387Z,22.30
2017-09-28T09:28:27.412Z,20.00
2017-09-28T09:30:55.002Z,20.73
2017-09-28T09:33:22.581Z,21.47
2017-09-28T09:35:50.210Z,23.27
2017-09-28T09:38:18.090Z,20.50
2017-09-28T09:40:45.740Z,20.87
2017-09-28T09:43:13.620Z,21.50
2017-09-28T09:45:41.487Z,22.40
2017-09-28T09:48:09.114Z,22.07
2017-09-28T09:50:36.712Z,21.63
2017-09-28T09:53:04.679Z,21.20
2017-09-28T09:55:32.275Z,21.57
2017-09-28T09:58:00.231Z,20.03
2017-09-28T10:00:27.859Z,21.33
2017-09-28T10:02:55.849Z,21.70
2017-09-28T10:05:23.816Z,23.73
2017-09-28T10:08:06.018Z,20.50
2017-09-28T10:10:43.771Z,22.20
2017-09-28T10:13:16.416Z,21.43
2017-09-28T10:16:05.190Z,21.33
2017-09-28T10:18:32.787Z,21.57
2017-09-28T10:21:00.691Z,20.73
2017-09-28T10:23:28.324Z,21.90
2017-09-28T10:25:55.943Z,22.40
2017-09-28T10:28:23.579Z,20.90
2017-09-28T10:30:51.179Z,21.67
2017-09-28T10:33:18.781Z,21.03
2017-09-28T10:35:46.403Z,22.07
2017-09-28T10:38:14.010Z,21.47
2017-09-28T10:40:41.642Z,22.60
2017-09-28T10:43:09.252Z,21.53
2017-09-28T10:45:36.865Z,22.40
2017-09-28T10:48:04.481Z,22.47
2017-09-28T10:50:32.070Z,23.20
2017-09-28T10:52:59.685Z,22.63
2017-09-28T10:55:27.293Z,21.03
2017-09-28T10:57:54.885Z,21.40
2017-09-28T11:00:22.534Z,22.57
2017-09-28T11:02:50.147Z,22.63
2017-09-28T11:05:17.909Z,20.47
2017-09-28T11:07:45.503Z,21.30
2017-09-28T11:10:13.121Z,21.83
2017-09-28T11:12:40.749Z,21.00
2017-09-28T11:15:08.338Z,22.50
2017-09-28T11:17:35.984Z,21.57
2017-09-28T11:20:03.586Z,22.83
2017-09-28T11:22:31.234Z,21.87
2017-09-28T11:24:58.907Z,21.53
2017-09-28T11:27:26.520Z,21.43
2017-09-28T11:29:54.182Z,23.83
2017-09-28T11:32:21.820Z,21.90
2017-09-28T11:34:49.427Z,22.60
2017-09-28T11:37:17.073Z,22.77
2017-09-28T11:39:44.686Z,22.97
2017-09-28T11:42:12.330Z,22.53
2017-09-28T11:44:39.951Z,21.80
2017-09-28T11:47:07.873Z,23.00
2017-09-28T11:49:35.520Z,21.87
2017-09-28T11:52:03.134Z,22.00
2017-09-28T11:54:30.866Z,23.50
2017-09-28T11:56:58.497Z,23.10
2017-09-28T11:59:26.118Z,23.67
2017-09-28T12:01:53.781Z,21.97
2017-09-28T12:04:21.385Z,21.63
2017-09-28T12:06:49.019Z,22.50
2017-09-28T12:09:16.628Z,22.93
2017-09-28T12:11:44.292Z,24.33
2017-09-28T12:14:12.274Z,22.80
2017-09-28T12:16:39.896Z,22.63
2017-09-28T12:19:07.530Z,21.43
2017-09-28T12:21:35.132Z,21.83
2017-09-28T12:24:02.739Z,21.30
2017-09-28T12:26:30.369Z,23.80
2017-09-28T12:28:57.971Z,23.33
2017-09-28T12:31:25.909Z,22.87
2017-09-28T12:33:53.509Z,23.07
2017-09-28T12:36:21.436Z,23.00
2017-09-28T12:38:49.066Z,24.30
2017-09-28T12:41:16.659Z,24.10
2017-09-28T12:43:44.292Z,22.93
2017-09-28T12:46:11.885Z,24.37
2017-09-28T12:48:39.489Z,23.60
2017-09-28T12:51:07.127Z,23.30
2017-09-28T12:53:34.977Z,22.60
2017-09-28T12:56:02.565Z,24.47
2017-09-28T12:58:30.197Z,22.80
2017-09-28T13:00:57.791Z,25.47
2017-09-28T13:03:25.382Z,24.73
2017-09-28T13:05:53.009Z,24.77
2017-09-28T13:08:20.637Z,25.90
2017-09-28T13:10:48.228Z,23.67
2017-09-28T13:13:15.857Z,23.90
2017-09-28T13:15:43.446Z,24.87
2017-09-28T13:18:11.101Z,24.37
2017-09-28T13:20:38.680Z,23.63
2017-09-28T13:23:06.634Z,24.87
2017-09-28T13:25:34.292Z,23.53
2017-09-28T13:28:01.875Z,24.70
2017-09-28T13:30:29.510Z,24.70
2017-09-28T13:32:57.140Z,24.30
2017-09-28T13:35:24.733Z,23.43
2017-09-28T13:37:52.382Z,23.00
2017-09-28T13:40:19.968Z,26.03
2017-09-28T13:42:47.628Z,26.80
2017-09-28T13:45:15.497Z,23.70
2017-09-28T13:47:43.092Z,23.77
2017-09-28T13:50:10.716Z,24.20
2017-09-28T13:52:38.303Z,25.87
2017-09-28T13:55:05.972Z,27.43
2017-09-28T13:57:33.569Z,24.33
2017-09-28T14:00:01.165Z,25.10
2017-09-28T14:02:28.826Z,26.00
2017-09-28T14:04:56.700Z,25.97
2017-09-28T14:07:24.316Z,25.77
2017-09-28T14:09:51.928Z,25.97
2017-09-28T14:12:19.545Z,25.07
2017-09-28T14:14:47.171Z,29.07
2017-09-28T14:17:14.758Z,24.47
2017-09-28T14:19:42.424Z,23.63
2017-09-28T14:22:10.009Z,27.80
2017-09-28T14:24:37.605Z,24.03
2017-09-28T14:27:05.211Z,26.27
2017-09-28T14:29:32.803Z,26.13
2017-09-28T14:32:00.448Z,26.90
2017-09-28T14:34:28.028Z,30.40
2017-09-28T14:36:55.607Z,23.50
2017-09-28T14:39:23.463Z,33.17
2017-09-28T14:41:51.647Z,23.27
2017-09-28T14:44:19.285Z,24.33
2017-09-28T14:46:46.869Z,28.40
2017-09-28T14:49:14.471Z,24.90
2017-09-28T14:51:42.083Z,31.77
2017-09-28T14:54:09.696Z,28.97
2017-09-28T14:56:37.368Z,26.87
2017-09-28T14:59:04.949Z,25.97
2017-09-28T15:01:32.532Z,24.90
2017-09-28T15:04:00.159Z,28.73
2017-09-28T15:06:27.744Z,24.73
2017-09-28T15:08:55.380Z,26.20
2017-09-28T15:11:22.989Z,24.57
2017-09-28T15:13:50.614Z,24.70
2017-09-28T15:16:18.533Z,25.10
2017-09-28T15:18:46.117Z,24.80
2017-09-28T15:21:13.801Z,29.37
2017-09-28T15:23:41.401Z,25.23
2017-09-28T15:26:08.997Z,24.40
2017-09-28T15:28:36.617Z,25.13
2017-09-28T15:31:04.508Z,24.40
2017-09-28T15:33:32.130Z,23.97
2017-09-28T15:35:59.740Z,26.13
2017-09-28T15:38:27.329Z,27.13
2017-09-28T15:40:54.947Z,23.77
2017-09-28T15:43:22.551Z,24.10
2017-09-28T15:45:50.475Z,25.37
2017-09-28T15:48:18.363Z,26.83
2017-09-28T15:50:45.984Z,27.57
2017-09-28T15:53:13.620Z,25.37
2017-09-28T15:55:41.215Z,25.33
2017-09-28T15:58:08.844Z,25.67
2017-09-28T16:00:36.437Z,24.10
2017-09-28T16:03:04.427Z,25.90
2017-09-28T16:05:32.037Z,23.27
2017-09-28T16:07:59.620Z,23.97
2017-09-28T16:10:27.240Z,23.77
2017-09-28T16:12:54.826Z,27.10
2017-09-28T16:15:22.416Z,26.50
2017-09-28T16:17:50.046Z,23.23
2017-09-28T16:20:17.628Z,25.90
2017-09-28T16:22:45.298Z,23.90
2017-09-28T16:25:13.191Z,25.10
2017-09-28T16:27:41.057Z,24.67
2017-09-28T16:30:08.688Z,24.00
2017-09-28T16:32:36.324Z,23.83
2017-09-28T16:35:04.246Z,24.93
2017-09-28T16:37:32.116Z,25.23
2017-09-28T16:39:59.695Z,24.37
2017-09-28T16:42:27.319Z,23.83
2017-09-28T16:44:54.899Z,25.30
2017-09-28T16:47:22.519Z,25.40
2017-09-28T16:49:50.100Z,24.07
2017-09-28T16:52:17.987Z,25.50
2017-09-28T16:54:45.599Z,23.60
2017-09-28T16:57:13.189Z,23.57
2017-09-28T16:59:40.815Z,24.97
2017-09-28T17:02:08.432Z,23.70
2017-09-28T17:04:36.021Z,23.03
2017-09-28T17:07:03.642Z,23.03
2017-09-28T17:09:31.230Z,23.63
2017-09-28T17:11:58.898Z,24.27
2017-09-28T17:14:26.855Z,25.47
2017-09-28T17:16:54.724Z,23.90
2017-09-28T17:19:22.393Z,23.50
2017-09-28T17:21:50.006Z,24.10
2017-09-28T17:24:17.682Z,23.87
2017-09-28T17:26:45.289Z,23.57
2017-09-28T17:29:12.872Z,23.40
2017-09-28T17:31:40.485Z,24.80
2017-09-28T17:34:08.109Z,23.27
2017-09-28T17:36:36.025Z,23.30
2017-09-28T17:39:03.893Z,23.90
2017-09-28T17:41:31.479Z,23.80
2017-09-28T17:43:59.100Z,23.80
2017-09-28T17:46:26.686Z,24.10
2017-09-28T17:48:54.648Z,25.83
2017-09-28T17:51:22.317Z,25.43
2017-09-28T17:53:49.915Z,24.57
2017-09-28T17:56:17.547Z,25.30
2017-09-28T17:58:45.507Z,25.00
2017-09-28T18:01:13.134Z,24.47
2017-09-28T18:03:40.731Z,26.60
2017-09-28T18:06:09.425Z,24.17
2017-09-28T18:08:37.033Z,25.10
2017-09-28T18:11:04.643Z,24.77
2017-09-28T18:13:32.269Z,25.30
2017-09-28T18:15:59.843Z,24.00
2017-09-28T18:18:27.468Z,24.03
2017-09-28T18:20:55.393Z,25.83
2017-09-28T18:23:22.981Z,25.77
2017-09-28T18:25:50.610Z,24.90
2017-09-28T18:28:18.490Z,24.90
2017-09-28T18:30:46.136Z,28.40
2017-09-28T18:33:13.809Z,24.60
2017-09-28T18:35:47.316Z,24.37
2017-09-28T18:38:15.015Z,25.80
2017-09-28T18:40:42.637Z,24.57
2017-09-28T18:43:10.408Z,24.93
2017-09-28T18:45:38.015Z,25.43
2017-09-28T18:48:05.620Z,24.90
2017-09-28T18:50:33.244Z,25.33
2017-09-28T18:53:00.832Z,26.47
2017-09-28T18:55:29.053Z,26.10
2017-09-28T18:57:57.001Z,25.37
2017-09-28T19:00:24.608Z,26.23
2017-09-28T19:02:52.227Z,26.67
2017-09-28T19:05:19.841Z,24.83
2017-09-28T19:07:47.652Z,27.37
2017-09-28T19:10:15.255Z,26.33
2017-09-28T19:12:43.184Z,27.20
2017-09-28T19:15:10.807Z,25.77
2017-09-28T19:17:38.407Z,26.07
2017-09-28T19:20:06.273Z,27.30
2017-09-28T19:22:33.895Z,26.67
2017-09-28T19:25:01.804Z,26.50
2017-09-28T19:27:29.446Z,27.47
2017-09-28T19:29:57.052Z,26.67
2017-09-28T19:32:24.641Z,27.40
2017-09-28T19:34:52.273Z,28.10
2017-09-28T19:37:20.397Z,26.17
2017-09-28T19:39:48.049Z,27.60
2017-09-28T19:42:15.630Z,26.70
2017-09-28T19:44:43.216Z,27.37
2017-09-28T19:47:10.828Z,27.30
2017-09-28T19:49:38.433Z,25.27
2017-09-28T19:52:06.127Z,26.00
2017-09-28T19:54:33.728Z,26.40
2017-09-28T19:57:01.321Z,27.13
2017-09-28T19:59:29.293Z,25.67
2017-09-28T20:01:56.881Z,26.30
2017-09-28T20:04:24.505Z,26.23
2017-09-28T20:06:52.100Z,26.83
2017-09-28T20:09:19.707Z,26.03
2017-09-28T20:11:47.318Z,27.47
2017-09-28T20:14:14.915Z,26.93
2017-09-28T20:16:42.841Z,26.03
2017-09-28T20:19:10.448Z,26.77
2017-09-28T20:21:38.074Z,26.97
2017-09-28T20:24:05.921Z,27.20
2017-09-28T20:26:33.560Z,27.60
2017-09-28T20:29:01.156Z,27.80
2017-09-28T20:31:28.752Z,27.30
2017-09-28T20:33:56.387Z,26.47
2017-09-28T20:36:24.568Z,26.63
2017-09-28T20:38:52.192Z,26.60
2017-09-28T20:41:19.788Z,27.70
2017-09-28T20:43:47.371Z,26.50
2017-09-28T20:46:14.990Z,28.30
2017-09-28T20:48:42.604Z,26.80
2017-09-28T20:51:10.224Z,27.73
2017-09-28T20:53:37.811Z,28.70
2017-09-28T20:56:05.412Z,27.63
2017-09-28T20:58:33.037Z,27.70
2017-09-28T21:01:00.620Z,28.30
2017-09-28T21:03:28.246Z,27.30
2017-09-28T21:05:55.828Z,28.50
2017-09-28T21:08:23.419Z,26.33
2017-09-28T21:10:51.051Z,27.03
2017-09-28T21:13:18.628Z,27.40
2017-09-28T21:15:46.703Z,29.10
2017-09-28T21:18:14.503Z,28.33
2017-09-28T21:20:42.089Z,29.23
2017-09-28T21:23:09.722Z,27.20
2017-09-28T21:25:37.320Z,28.03
2017-09-28T21:28:05.001Z,27.87
2017-09-28T21:30:32.927Z,27.80
2017-09-28T21:33:00.529Z,26.53
2017-09-28T21:35:28.132Z,27.53
2017-09-28T21:37:55.715Z,27.63
2017-09-28T21:40:23.692Z,28.03
2017-09-28T21:42:51.286Z,27.70
2017-09-28T21:45:18.904Z,28.50
2017-09-28T21:47:46.542Z,28.40
2017-09-28T21:50:14.136Z,28.00
2017-09-28T21:52:41.774Z,28.13
2017-09-28T21:55:09.362Z,26.93
2017-09-28T21:57:36.957Z,27.90
2017-09-28T22:00:04.563Z,29.27
2017-09-28T22:02:32.155Z,27.93
2017-09-28T22:04:59.802Z,28.57
2017-09-28T22:07:27.668Z,28.33
2017-09-28T22:09:55.273Z,27.60
2017-09-28T22:12:22.886Z,27.80
2017-09-28T22:14:50.479Z,28.23
2017-09-28T22:17:18.128Z,28.27
2017-09-28T22:19:45.731Z,27.20
2017-09-28T22:22:13.333Z,27.20
2017-09-28T22:24:40.980Z,28.53
2017-09-28T22:27:08.577Z,27.90
2017-09-28T22:29:36.246Z,30.50
2017-09-28T22:32:03.837Z,29.27
2017-09-28T22:34:31.427Z,30.97
2017-09-28T22:36:59.044Z,29.50
2017-09-28T22:39:26.624Z,29.33
2017-09-28T22:41:54.249Z,27.60
2017-09-28T22:44:21.848Z,28.10
2017-09-28T22:46:49.458Z,29.87
2017-09-28T22:49:17.084Z,29.90
2017-09-28T22:51:44.676Z,29.03
2017-09-28T22:54:12.659Z,29.30
2017-09-28T22:56:40.256Z,29.00
2017-09-28T22:59:07.857Z,29.10
2017-09-28T23:01:35.477Z,29.80
2017-09-28T23:04:03.064Z,29.43
2017-09-28T23:06:30.695Z,29.60
2017-09-28T23:08:58.280Z,29.57
2017-09-28T23:11:26.784Z,31.03
2017-09-28T23:13:54.410Z,30.30
2017-09-28T23:16:22.033Z,29.70
2017-09-28T23:18:49.675Z,29.63
2017-09-28T23:21:17.297Z,32.17
2017-09-28T23:23:45.227Z,30.47
2017-09-28T23:26:12.848Z,31.10
2017-09-28T23:28:40.444Z,29.90
2017-09-28T23:31:08.414Z,31.17
2017-09-28T23:33:36.299Z,32.47
2017-09-28T23:36:03.893Z,32.77
2017-09-28T23:38:31.520Z,32.27
2017-09-28T23:40:59.142Z,29.87
2017-09-28T23:43:27.257Z,29.77
2017-09-28T23:45:54.840Z,30.83
2017-09-28T23:48:22.452Z,30.17
2017-09-28T23:50:50.064Z,29.73
2017-09-28T23:53:17.667Z,30.23
2017-09-28T23:55:45.283Z,30.47
2017-09-28T23:58:12.908Z,31.30
